createdAt,value
2019-04-05T00:00:19.072Z,93.90
2019-04-05T00:02:45.481Z,80.65
2019-04-05T00:05:12.242Z,95.87
2019-04-05T00:07:38.568Z,81.60
2019-04-05T00:10:06.207Z,111.20
2019-04-05T00:12:32.617Z,103.25
2019-04-05T00:14:58.916Z,94.52
2019-04-05T00:17:25.197Z,116.50
2019-04-05T00:19:51.630Z,128.87
2019-04-05T00:22:18.013Z,125.10
2019-04-05T00:24:44.353Z,112.42
2019-04-05T00:27:10.851Z,95.40
2019-04-05T00:29:37.289Z,88.22
2019-04-05T00:32:03.666Z,114.47
2019-04-05T00:34:30.080Z,94.85
2019-04-05T00:36:56.381Z,101.78
2019-04-05T00:39:22.713Z,122.90
2019-04-05T00:41:49.082Z,96.72
2019-04-05T00:44:15.474Z,101.70
2019-04-05T00:46:44.587Z,106.22
2019-04-05T00:49:10.108Z,130.60
2019-04-05T00:51:36.547Z,134.03
2019-04-05T00:54:02.923Z,94.20
2019-04-05T00:56:29.359Z,106.47
2019-04-05T00:58:55.861Z,100.62
2019-04-05T01:01:22.357Z,122.65
2019-04-05T01:03:48.773Z,115.88
2019-04-05T01:06:15.174Z,139.60
2019-04-05T01:08:43.687Z,131.00
2019-04-05T01:11:10.338Z,176.12
2019-04-05T01:13:37.127Z,130.63
2019-04-05T01:16:03.616Z,170.53
2019-04-05T01:18:29.883Z,127.70
2019-04-05T01:21:00.008Z,131.25
2019-04-05T01:23:26.483Z,122.30
2019-04-05T01:25:52.861Z,122.62
2019-04-05T01:28:19.507Z,122.22
2019-04-05T01:30:45.946Z,159.45
2019-04-05T01:33:12.229Z,147.87
2019-04-05T01:35:38.568Z,174.62
2019-04-05T01:38:05.025Z,131.75
2019-04-05T01:40:33.722Z,129.95
2019-04-05T01:43:00.678Z,111.62
2019-04-05T01:45:27.103Z,156.05
2019-04-05T01:47:53.516Z,144.53
2019-04-05T01:50:19.836Z,162.70
2019-04-05T01:52:46.753Z,149.12
2019-04-05T01:55:13.182Z,122.90
2019-04-05T01:57:39.634Z,169.60
2019-04-05T02:00:10.397Z,136.10
2019-04-05T02:02:36.823Z,143.93
2019-04-05T02:05:06.984Z,119.90
2019-04-05T02:07:33.476Z,151.00
2019-04-05T02:09:59.960Z,204.43
2019-04-05T02:12:26.675Z,152.27
2019-04-05T02:14:53.296Z,142.70
2019-04-05T02:17:19.807Z,140.75
2019-04-05T02:19:46.184Z,136.72
2019-04-05T02:22:12.814Z,104.12
2019-04-05T02:24:39.228Z,122.78
2019-04-05T02:27:05.502Z,115.52
2019-04-05T02:29:32.006Z,119.82
2019-04-05T02:31:58.393Z,104.75
2019-04-05T02:34:25.036Z,103.92
2019-04-05T02:36:51.382Z,112.70
2019-04-05T02:39:17.830Z,107.72
2019-04-05T02:41:45.066Z,95.05
2019-04-05T02:44:12.526Z,99.32
2019-04-05T02:46:40.901Z,93.17
2019-04-05T02:49:08.502Z,104.12
2019-04-05T02:51:37.096Z,95.20
2019-04-05T02:54:03.812Z,90.15
2019-04-05T02:56:30.443Z,86.08
2019-04-05T02:58:57.341Z,117.82
2019-04-05T03:01:23.974Z,116.33
2019-04-05T03:03:50.428Z,113.05
2019-04-05T03:06:16.851Z,124.27
2019-04-05T03:08:43.642Z,112.40
2019-04-05T03:11:13.276Z,102.90
2019-04-05T03:13:46.518Z,101.82
2019-04-05T03:16:16.591Z,122.40
2019-04-05T03:18:46.649Z,109.10
2019-04-05T03:21:13.821Z,101.38
2019-04-05T03:23:42.575Z,102.58
2019-04-05T03:26:12.658Z,123.92
2019-04-05T03:28:41.632Z,111.20
2019-04-05T03:31:08.825Z,108.60
2019-04-05T03:33:35.686Z,100.33
2019-04-05T03:36:02.154Z,104.17
2019-04-05T03:38:28.930Z,96.02
2019-04-05T03:40:55.439Z,96.35
2019-04-05T03:43:22.640Z,107.32
2019-04-05T03:45:49.378Z,93.03
2019-04-05T03:48:15.932Z,98.90
2019-04-05T03:50:45.114Z,114.57
2019-04-05T03:53:11.057Z,104.05
2019-04-05T03:55:37.544Z,101.70
2019-04-05T03:58:04.409Z,105.70
2019-04-05T04:00:30.982Z,110.83
2019-04-05T04:02:57.636Z,93.85
2019-04-05T04:05:24.243Z,110.20
2019-04-05T04:07:50.814Z,105.35
2019-04-05T04:10:17.198Z,89.87
2019-04-05T04:12:43.618Z,105.07
2019-04-05T04:15:13.904Z,93.47
2019-04-05T04:17:42.763Z,96.97
2019-04-05T04:20:29.036Z,103.80
2019-04-05T04:22:55.565Z,83.00
2019-04-05T04:25:22.152Z,86.08
2019-04-05T04:27:48.879Z,82.25
2019-04-05T04:30:15.441Z,92.70
2019-04-05T04:32:41.765Z,92.08
2019-04-05T04:35:08.294Z,114.50
2019-04-05T04:37:34.740Z,102.72
2019-04-05T04:40:01.301Z,132.45
2019-04-05T04:42:27.854Z,136.20
2019-04-05T04:44:54.398Z,110.75
2019-04-05T04:47:26.976Z,125.97
2019-04-05T04:49:49.254Z,137.45
2019-04-05T04:52:15.889Z,106.85
2019-04-05T04:54:42.431Z,111.45
2019-04-05T04:57:08.805Z,130.87
2019-04-05T04:59:35.501Z,124.82
2019-04-05T05:02:01.953Z,147.68
2019-04-05T05:04:28.672Z,154.07
2019-04-05T05:06:55.030Z,139.45
2019-04-05T05:09:21.728Z,140.03
2019-04-05T05:11:48.467Z,142.30
2019-04-05T05:14:15.017Z,102.42
2019-04-05T05:16:41.781Z,152.07
2019-04-05T05:19:08.329Z,127.27
2019-04-05T05:21:35.208Z,127.65
2019-04-05T05:24:01.906Z,124.47
2019-04-05T05:26:28.970Z,128.62
2019-04-05T05:28:55.634Z,106.35
2019-04-05T05:31:22.601Z,118.82
2019-04-05T05:33:49.424Z,135.50
2019-04-05T05:36:16.048Z,126.95
2019-04-05T05:38:42.594Z,123.15
2019-04-05T05:41:08.951Z,106.05
2019-04-05T05:43:35.464Z,97.82
2019-04-05T05:46:01.815Z,105.15
2019-04-05T05:48:30.663Z,117.47
2019-04-05T05:50:56.589Z,106.50
2019-04-05T05:53:23.066Z,115.90
2019-04-05T05:55:49.441Z,109.60
2019-04-05T05:58:15.865Z,120.87
2019-04-05T06:00:42.245Z,108.47
2019-04-05T06:03:11.335Z,98.67
2019-04-05T06:05:37.115Z,94.32
2019-04-05T06:08:03.441Z,113.85
2019-04-05T06:10:29.871Z,93.10
2019-04-05T06:12:58.661Z,106.37
2019-04-05T06:15:24.448Z,116.57
2019-04-05T06:18:03.872Z,102.00
2019-04-05T06:20:19.952Z,116.42
2019-04-05T06:22:47.733Z,127.70
2019-04-05T06:25:14.256Z,118.15
2019-04-05T06:27:40.914Z,117.15
2019-04-05T06:30:07.778Z,130.60
2019-04-05T06:32:34.028Z,134.52
2019-04-05T06:35:00.497Z,121.75
2019-04-05T06:37:26.808Z,121.00
2019-04-05T06:39:53.229Z,109.15
2019-04-05T06:42:19.622Z,103.32
2019-04-05T06:44:46.167Z,126.70
2019-04-05T06:47:12.544Z,117.62
2019-04-05T06:49:39.076Z,97.50
2019-04-05T06:52:05.306Z,110.35
2019-04-05T06:54:31.634Z,121.30
2019-04-05T06:56:57.815Z,119.50
2019-04-05T06:59:24.199Z,128.57
2019-04-05T07:01:50.511Z,130.78
2019-04-05T07:04:16.996Z,120.65
2019-04-05T07:06:43.376Z,120.80
2019-04-05T07:09:09.808Z,116.05
2019-04-05T07:11:36.120Z,116.37
2019-04-05T07:14:02.556Z,117.67
2019-04-05T07:16:28.938Z,101.50
2019-04-05T07:18:55.302Z,102.10
2019-04-05T07:21:21.872Z,97.37
2019-04-05T07:26:24.689Z,96.63
2019-04-05T07:28:50.948Z,99.13
2019-04-05T07:31:17.296Z,91.85
2019-04-05T07:33:43.598Z,91.55
2019-04-05T07:36:09.925Z,82.85
2019-04-05T07:38:36.228Z,93.47
2019-04-05T07:41:02.587Z,87.25
2019-04-05T07:43:28.915Z,86.42
2019-04-05T07:45:55.282Z,88.85
2019-04-05T07:48:21.492Z,95.12
2019-04-05T07:50:47.982Z,96.90
2019-04-05T07:53:14.381Z,103.27
2019-04-05T07:55:40.672Z,98.35
2019-04-05T07:58:07.197Z,102.95
2019-04-05T08:00:42.850Z,98.22
2019-04-05T08:03:09.510Z,83.50
2019-04-05T08:05:35.933Z,105.25
2019-04-05T08:08:03.689Z,91.60
2019-04-05T08:10:30.056Z,88.05
2019-04-05T08:12:56.813Z,97.53
2019-04-05T08:15:23.511Z,103.85
2019-04-05T08:17:49.747Z,99.55
2019-04-05T08:20:16.131Z,100.90
2019-04-05T08:22:42.718Z,93.12
2019-04-05T08:25:09.151Z,94.17
2019-04-05T08:27:35.641Z,87.90
2019-04-05T08:30:03.239Z,92.55
2019-04-05T08:32:29.492Z,108.20
2019-04-05T08:34:55.876Z,92.25
2019-04-05T08:37:22.230Z,97.15
2019-04-05T08:39:48.658Z,87.37
2019-04-05T08:42:15.249Z,87.95
2019-04-05T08:44:41.661Z,87.33
2019-04-05T08:47:08.168Z,87.00
2019-04-05T08:49:34.431Z,92.30
2019-04-05T08:52:00.836Z,87.75
2019-04-05T08:54:33.097Z,94.87
2019-04-05T08:56:55.448Z,91.40
2019-04-05T08:59:21.756Z,100.22
2019-04-05T09:01:48.035Z,91.42
2019-04-05T09:04:14.633Z,85.92
2019-04-05T09:06:41.215Z,83.65
2019-04-05T09:09:09.446Z,83.35
2019-04-05T09:11:36.102Z,110.32
2019-04-05T09:14:02.536Z,112.40
2019-04-05T09:16:28.948Z,115.45
2019-04-05T09:18:55.380Z,106.85
2019-04-05T09:21:21.735Z,99.37
2019-04-05T09:23:48.278Z,101.27
2019-04-05T09:26:14.737Z,102.05
2019-04-05T09:28:41.227Z,109.63
2019-04-05T09:31:07.580Z,107.25
2019-04-05T09:33:34.217Z,95.40
2019-04-05T09:36:00.843Z,91.53
2019-04-05T09:38:27.086Z,82.10
2019-04-05T09:40:53.689Z,101.72
2019-04-05T09:43:20.144Z,89.97
2019-04-05T09:45:46.684Z,94.10
2019-04-05T09:48:13.073Z,91.00
2019-04-05T09:50:39.357Z,84.67
2019-04-05T09:53:05.939Z,98.55
2019-04-05T09:55:32.355Z,97.12
2019-04-05T09:57:58.639Z,105.50
2019-04-05T10:00:27.143Z,96.22
2019-04-05T10:02:53.580Z,98.05
2019-04-05T10:05:20.105Z,109.85
2019-04-05T10:07:54.772Z,102.82
2019-04-05T10:10:14.752Z,90.83
2019-04-05T10:12:41.300Z,94.77
2019-04-05T10:15:08.097Z,96.40
2019-04-05T10:17:34.377Z,99.22
2019-04-05T10:20:00.796Z,103.40
2019-04-05T10:22:27.417Z,98.10
2019-04-05T10:24:56.728Z,104.30
2019-04-05T10:27:23.194Z,108.95
2019-04-05T10:29:49.727Z,104.45
2019-04-05T10:32:16.186Z,98.45
2019-04-05T10:34:42.613Z,94.15
2019-04-05T10:37:09.237Z,98.20
2019-04-05T10:39:35.587Z,92.78
2019-04-05T10:42:03.610Z,94.40
2019-04-05T10:44:30.275Z,83.00
2019-04-05T10:46:56.593Z,84.05
2019-04-05T10:49:22.902Z,98.75
2019-04-05T10:51:49.215Z,87.40
2019-04-05T10:54:15.617Z,93.78
2019-04-05T10:56:42.160Z,95.32
2019-04-05T10:59:08.489Z,98.45
2019-04-05T11:01:35.081Z,101.70
2019-04-05T11:04:01.489Z,83.62
2019-04-05T11:06:27.954Z,97.33
2019-04-05T11:08:54.851Z,100.55
2019-04-05T11:11:21.287Z,83.45
2019-04-05T11:13:50.481Z,85.80
2019-04-05T11:16:16.838Z,84.67
2019-04-05T11:18:45.115Z,84.83
2019-04-05T11:21:11.301Z,89.70
2019-04-05T11:23:37.653Z,90.83
2019-04-05T11:26:04.060Z,93.37
2019-04-05T11:28:30.394Z,88.62
2019-04-05T11:30:56.821Z,84.00
2019-04-05T11:33:23.157Z,88.52
2019-04-05T11:35:49.686Z,93.62
2019-04-05T11:38:17.450Z,81.90
2019-04-05T11:40:44.517Z,94.70
2019-04-05T11:43:11.082Z,88.47
2019-04-05T11:45:37.543Z,96.25
2019-04-05T11:48:04.810Z,95.53
2019-04-05T11:50:34.855Z,96.75
2019-04-05T11:52:59.609Z,89.22
2019-04-05T11:55:27.324Z,83.10
2019-04-05T11:57:55.850Z,84.62
2019-04-05T12:00:24.236Z,81.32
2019-04-05T12:03:01.631Z,80.05
2019-04-05T12:05:28.325Z,77.17
2019-04-05T12:07:58.614Z,86.80
2019-04-05T12:10:22.926Z,93.80
2019-04-05T12:12:49.333Z,87.72
2019-04-05T12:15:17.189Z,89.85
2019-04-05T12:17:43.465Z,92.20
2019-04-05T12:20:11.064Z,81.40
2019-04-05T12:22:37.467Z,88.70
2019-04-05T12:25:05.407Z,85.50
2019-04-05T12:27:31.841Z,93.50
2019-04-05T12:29:58.140Z,79.03
2019-04-05T12:32:33.489Z,83.17
2019-04-05T12:34:54.439Z,77.03
2019-04-05T12:37:22.115Z,88.37
2019-04-05T12:39:48.680Z,92.47
2019-04-05T12:42:15.149Z,79.60
2019-04-05T12:44:44.847Z,87.92
2019-04-05T12:47:09.844Z,88.70
2019-04-05T12:49:36.170Z,83.47
2019-04-05T12:52:02.626Z,83.52
2019-04-05T12:54:29.257Z,83.30
2019-04-05T12:56:57.895Z,85.53
2019-04-05T12:59:25.556Z,79.75
2019-04-05T13:01:52.076Z,80.87
2019-04-05T13:04:20.538Z,81.95
2019-04-05T13:06:46.842Z,91.15
2019-04-05T13:09:13.414Z,89.35
2019-04-05T13:11:40.112Z,77.20
2019-04-05T13:14:06.770Z,84.87
2019-04-05T13:16:33.205Z,87.25
2019-04-05T13:19:00.846Z,83.52
2019-04-05T13:21:30.073Z,95.40
2019-04-05T13:23:56.170Z,89.15
2019-04-05T13:26:22.415Z,100.85
2019-04-05T13:28:49.294Z,107.87
2019-04-05T13:31:18.261Z,103.65
2019-04-05T13:33:43.922Z,99.92
2019-04-05T13:36:10.674Z,95.00
2019-04-05T13:38:37.097Z,112.10
2019-04-05T13:41:03.564Z,108.12
2019-04-05T13:43:31.963Z,90.42
2019-04-05T13:45:58.538Z,94.22
2019-04-05T13:48:24.986Z,101.20
2019-04-05T13:50:51.258Z,90.70
2019-04-05T13:53:17.730Z,83.92
2019-04-05T13:55:47.096Z,88.85
2019-04-05T13:58:12.173Z,88.65
2019-04-05T14:00:38.542Z,83.25
2019-04-05T14:03:05.013Z,84.25
2019-04-05T14:05:31.660Z,88.87
2019-04-05T14:08:10.064Z,89.55
2019-04-05T14:10:26.389Z,89.25
2019-04-05T14:12:52.735Z,90.53
2019-04-05T14:15:19.091Z,97.10
2019-04-05T14:17:45.379Z,96.37
2019-04-05T14:20:12.859Z,91.05
2019-04-05T14:22:39.532Z,87.33
2019-04-05T14:25:06.719Z,91.12
2019-04-05T14:27:35.150Z,93.27
2019-04-05T14:30:03.102Z,90.97
2019-04-05T14:32:29.564Z,98.17
2019-04-05T14:34:55.808Z,89.62
2019-04-05T14:37:24.989Z,102.20
2019-04-05T14:39:50.647Z,102.07
2019-04-05T14:42:20.051Z,87.80
2019-04-05T14:44:46.402Z,92.60
2019-04-05T14:47:12.759Z,90.17
2019-04-05T14:49:39.054Z,90.38
2019-04-05T14:52:05.440Z,89.13
2019-04-05T14:54:31.764Z,93.70
2019-04-05T14:57:03.387Z,89.72
2019-04-05T14:59:27.602Z,83.30
2019-04-05T15:01:54.090Z,101.60
2019-04-05T15:04:20.583Z,93.07
2019-04-05T15:06:50.297Z,103.40
2019-04-05T15:09:15.294Z,93.10
2019-04-05T15:11:41.676Z,89.67
2019-04-05T15:14:07.976Z,100.78
2019-04-05T15:16:34.284Z,95.95
2019-04-05T15:19:00.694Z,99.37
2019-04-05T15:21:27.103Z,98.05
2019-04-05T15:23:53.580Z,106.60
2019-04-05T15:26:21.274Z,97.60
2019-04-05T15:28:47.739Z,96.17
2019-04-05T15:31:14.058Z,111.00
2019-04-05T15:33:40.566Z,90.45
2019-04-05T15:36:07.070Z,100.22
2019-04-05T15:38:33.537Z,98.10
2019-04-05T15:40:59.947Z,102.65
2019-04-05T15:43:26.411Z,101.22
2019-04-05T15:45:52.673Z,95.12
2019-04-05T15:48:20.483Z,101.97
2019-04-05T15:50:47.448Z,99.15
2019-04-05T15:53:15.681Z,91.82
2019-04-05T15:55:41.972Z,86.67
2019-04-05T15:58:08.429Z,95.90
2019-04-05T16:00:38.491Z,101.12
2019-04-05T16:03:04.902Z,92.65
2019-04-05T16:05:31.555Z,91.80
2019-04-05T16:07:57.819Z,102.20
2019-04-05T16:10:24.222Z,107.58
2019-04-05T16:12:50.580Z,103.15
2019-04-05T16:15:17.090Z,87.80
2019-04-05T16:17:43.466Z,99.30
2019-04-05T16:20:11.155Z,91.55
2019-04-05T16:22:37.536Z,108.22
2019-04-05T16:25:05.607Z,94.72
2019-04-05T16:27:31.932Z,83.35
2019-04-05T16:29:58.284Z,88.37
2019-04-05T16:32:25.119Z,81.53
2019-04-05T16:34:51.646Z,80.38
2019-04-05T16:37:17.883Z,87.12
2019-04-05T16:39:55.286Z,82.60
2019-04-05T16:42:21.580Z,83.65
2019-04-05T16:44:48.246Z,84.25
2019-04-05T16:47:14.639Z,86.70
2019-04-05T16:49:41.101Z,82.35
2019-04-05T16:52:07.348Z,81.30
2019-04-05T16:54:33.818Z,82.65
2019-04-05T16:57:00.087Z,78.50
2019-04-05T16:59:26.436Z,67.90
2019-04-05T17:01:52.871Z,74.15
2019-04-05T17:04:19.113Z,75.15
2019-04-05T17:06:45.484Z,70.42
2019-04-05T17:09:12.174Z,72.80
2019-04-05T17:11:38.422Z,65.32
2019-04-05T17:14:04.949Z,71.47
2019-04-05T17:16:31.411Z,71.10
2019-04-05T17:18:57.808Z,77.35
2019-04-05T17:21:24.303Z,65.50
2019-04-05T17:23:50.648Z,69.07
2019-04-05T17:26:17.123Z,66.47
2019-04-05T17:28:43.728Z,63.98
2019-04-05T17:31:10.142Z,58.55
2019-04-05T17:33:36.508Z,66.85
2019-04-05T17:36:03.043Z,64.17
2019-04-05T17:38:29.477Z,70.97
2019-04-05T17:40:55.989Z,64.22
2019-04-05T17:43:22.262Z,65.40
2019-04-05T17:45:48.553Z,73.70
2019-04-05T17:48:14.991Z,74.72
2019-04-05T17:50:43.895Z,68.57
2019-04-05T17:53:13.284Z,66.55
2019-04-05T17:55:38.689Z,63.38
2019-04-05T17:58:05.486Z,64.10
2019-04-05T18:00:32.161Z,71.00
2019-04-05T18:02:58.443Z,75.78
2019-04-05T18:05:24.675Z,74.05
2019-04-05T18:07:51.195Z,70.90
2019-04-05T18:10:17.490Z,75.85
2019-04-05T18:12:44.010Z,69.45
2019-04-05T18:15:10.513Z,74.97
2019-04-05T18:17:37.004Z,74.60
2019-04-05T18:20:05.490Z,68.65
2019-04-05T18:22:31.922Z,76.25
2019-04-05T18:24:58.205Z,78.17
2019-04-05T18:27:24.472Z,76.42
2019-04-05T18:29:50.898Z,69.70
2019-04-05T18:32:17.197Z,72.65
2019-04-05T18:34:43.490Z,71.87
2019-04-05T18:37:09.791Z,72.27
2019-04-05T18:39:36.230Z,75.95
2019-04-05T18:42:02.676Z,78.47
2019-04-05T18:44:29.088Z,77.42
2019-04-05T18:46:55.436Z,77.87
2019-04-05T18:49:21.959Z,71.17
2019-04-05T18:51:48.313Z,78.05
2019-04-05T18:54:14.781Z,79.80
2019-04-05T18:56:41.324Z,81.65
2019-04-05T18:59:07.764Z,74.25
2019-04-05T19:01:34.836Z,70.03
2019-04-05T19:04:01.093Z,82.05
2019-04-05T19:06:27.527Z,76.53
2019-04-05T19:08:53.906Z,69.92
2019-04-05T19:11:20.368Z,75.90
2019-04-05T19:14:00.075Z,75.20
2019-04-05T19:16:15.244Z,73.97
2019-04-05T19:18:41.497Z,68.80
2019-04-05T19:21:07.883Z,75.25
2019-04-05T19:23:34.228Z,78.85
2019-04-05T19:26:00.595Z,75.50
2019-04-05T19:28:26.921Z,74.60
2019-04-05T19:50:38.392Z,59.93
2019-04-05T19:53:04.893Z,69.58
2019-04-05T19:55:31.245Z,71.50
2019-04-05T19:57:57.867Z,68.90
2019-04-05T20:00:24.370Z,72.78
2019-04-05T20:02:50.653Z,70.28
2019-04-05T20:05:16.958Z,72.65
2019-04-05T20:07:43.241Z,74.95
2019-04-05T20:10:09.483Z,83.22
2019-04-05T20:12:35.982Z,80.70
2019-04-05T20:15:05.090Z,75.30
2019-04-05T20:17:31.458Z,70.50
2019-04-05T20:19:57.727Z,76.85
2019-04-05T20:22:24.084Z,72.20
2019-04-05T20:24:50.492Z,74.65
2019-04-05T20:27:16.885Z,79.27
2019-04-05T20:29:43.324Z,69.55
2019-04-05T20:32:09.596Z,66.35
2019-04-05T20:34:36.101Z,69.37
2019-04-05T20:37:02.539Z,68.65
2019-04-05T20:39:29.117Z,65.85
2019-04-05T20:41:55.502Z,68.42
2019-04-05T20:44:24.085Z,76.00
2019-04-05T20:46:50.438Z,80.28
2019-04-05T20:49:16.762Z,81.80
2019-04-05T20:51:43.313Z,84.85
2019-04-05T20:54:10.054Z,72.12
2019-04-05T20:56:36.341Z,84.60
2019-04-05T20:59:02.853Z,82.10
2019-04-05T21:01:29.115Z,81.35
2019-04-05T21:03:55.518Z,79.22
2019-04-05T21:06:21.761Z,67.67
2019-04-05T21:08:48.017Z,70.10
2019-04-05T21:11:14.514Z,77.03
2019-04-05T21:13:40.890Z,69.60
2019-04-05T21:16:07.364Z,73.95
2019-04-05T21:18:33.783Z,67.37
2019-04-05T21:21:00.050Z,69.05
2019-04-05T21:23:26.354Z,78.17
2019-04-05T21:25:52.617Z,63.92
2019-04-05T21:28:18.938Z,66.37
2019-04-05T21:30:45.329Z,65.65
2019-04-05T21:33:11.740Z,71.50
2019-04-05T21:35:40.157Z,69.40
2019-04-05T21:38:06.484Z,70.57
2019-04-05T21:40:32.858Z,76.45
2019-04-05T21:42:59.194Z,68.05
2019-04-05T21:45:25.457Z,62.78
2019-04-05T21:47:51.871Z,66.92
2019-04-05T21:50:18.300Z,63.68
2019-04-05T21:52:44.837Z,66.60
2019-04-05T21:55:11.515Z,67.60
2019-04-05T21:57:37.826Z,67.12
2019-04-05T22:00:20.527Z,72.50
2019-04-05T22:02:47.219Z,63.33
2019-04-05T22:05:13.713Z,59.95
2019-04-05T22:07:40.096Z,68.42
2019-04-05T22:10:06.509Z,70.50
2019-04-05T22:12:33.751Z,63.83
2019-04-05T22:15:00.027Z,63.92
2019-04-05T22:17:26.842Z,69.53
2019-04-05T22:19:53.628Z,67.22
2019-04-05T22:22:20.614Z,69.77
2019-04-05T22:24:58.321Z,65.72
2019-04-05T22:27:15.079Z,66.42
2019-04-05T22:29:41.619Z,68.12
2019-04-05T22:32:07.923Z,67.20
2019-04-05T22:34:34.305Z,72.70
2019-04-05T22:37:00.610Z,67.15
2019-04-05T22:39:27.151Z,60.83
2019-04-05T22:41:53.446Z,68.95
2019-04-05T22:44:19.653Z,60.40
2019-04-05T22:46:45.961Z,73.47
2019-04-05T22:49:12.352Z,68.50
2019-04-05T22:51:38.705Z,75.47
2019-04-05T22:54:05.006Z,68.60
2019-04-05T22:56:31.332Z,77.85
2019-04-05T22:58:57.614Z,74.95
2019-04-05T23:01:23.972Z,78.72
2019-04-05T23:03:50.307Z,64.87
2019-04-05T23:06:16.590Z,71.02
2019-04-05T23:08:42.886Z,67.67
2019-04-05T23:11:09.217Z,75.95
2019-04-05T23:13:35.520Z,74.40
2019-04-05T23:16:01.779Z,76.77
2019-04-05T23:18:28.186Z,87.67
2019-04-05T23:20:55.524Z,86.45
2019-04-05T23:23:21.801Z,87.20
2019-04-05T23:25:48.420Z,73.02
2019-04-05T23:28:14.827Z,81.40
2019-04-05T23:30:41.182Z,87.65
2019-04-05T23:33:07.554Z,79.50
2019-04-05T23:35:33.946Z,83.97
2019-04-05T23:38:00.248Z,85.83
2019-04-05T23:40:26.564Z,88.55
2019-04-05T23:42:52.875Z,91.02
2019-04-05T23:45:19.264Z,84.22
2019-04-05T23:47:45.529Z,79.87
2019-04-05T23:50:12.216Z,83.40
2019-04-05T23:52:38.548Z,83.85
2019-04-05T23:55:05.621Z,84.35
2019-04-05T23:57:31.929Z,80.72
2019-04-05T23:59:58.461Z,80.87
